sensor_id;sensor_type;location;lat;lon;timestamp;pressure;altitude;pressure_sealevel;temperature;humidity
59289;BME280;45056;47.602;9.886;2022-11-27T00:01:34;93971.72;;;2.83;65.94
59289;BME280;45056;47.602;9.886;2022-11-27T00:04:04;93969.03;;;2.83;66.38
59289;BME280;45056;47.602;9.886;2022-11-27T00:06:34;93975.19;;;2.84;66.21
59289;BME280;45056;47.602;9.886;2022-11-27T00:09:05;93963.66;;;2.83;65.91
59289;BME280;45056;47.602;9.886;2022-11-27T00:11:37;93970.97;;;2.83;65.83
59289;BME280;45056;47.602;9.886;2022-11-27T00:14:06;93964.03;;;2.82;65.85
59289;BME280;45056;47.602;9.886;2022-11-27T00:16:37;93959.41;;;2.82;66.01
59289;BME280;45056;47.602;9.886;2022-11-27T00:19:06;93958.22;;;2.80;65.80
59289;BME280;45056;47.602;9.886;2022-11-27T00:21:35;93964.75;;;2.79;65.88
59289;BME280;45056;47.602;9.886;2022-11-27T00:24:05;93952.84;;;2.76;66.07
59289;BME280;45056;47.602;9.886;2022-11-27T00:26:36;93947.81;;;2.74;65.92
59289;BME280;45056;47.602;9.886;2022-11-27T00:29:05;93942.81;;;2.73;65.83
59289;BME280;45056;47.602;9.886;2022-11-27T00:31:35;93931.28;;;2.72;65.88
59289;BME280;45056;47.602;9.886;2022-11-27T00:34:05;93935.09;;;2.71;65.68
59289;BME280;45056;47.602;9.886;2022-11-27T00:36:35;93935.50;;;2.70;65.55
59289;BME280;45056;47.602;9.886;2022-11-27T00:39:04;93938.19;;;2.70;65.74
59289;BME280;45056;47.602;9.886;2022-11-27T00:41:33;93931.59;;;2.67;65.66
59289;BME280;45056;47.602;9.886;2022-11-27T00:44:03;93941.91;;;2.62;65.80
59289;BME280;45056;47.602;9.886;2022-11-27T00:46:33;93936.13;;;2.59;65.94
59289;BME280;45056;47.602;9.886;2022-11-27T00:49:04;93931.13;;;2.58;65.97
59289;BME280;45056;47.602;9.886;2022-11-27T00:51:32;93929.94;;;2.55;66.13
59289;BME280;45056;47.602;9.886;2022-11-27T00:54:01;93926.47;;;2.55;66.11
59289;BME280;45056;47.602;9.886;2022-11-27T00:56:32;93926.84;;;2.53;66.27
59289;BME280;45056;47.602;9.886;2022-11-27T00:59:02;93922.25;;;2.54;66.48
59289;BME280;45056;47.602;9.886;2022-11-27T01:01:33;93929.16;;;2.55;66.26
59289;BME280;45056;47.602;9.886;2022-11-27T01:04:05;93918.41;;;2.55;66.50
59289;BME280;45056;47.602;9.886;2022-11-27T01:06:35;93926.44;;;2.51;66.25
59289;BME280;45056;47.602;9.886;2022-11-27T01:09:04;93921.44;;;2.50;66.32
59289;BME280;45056;47.602;9.886;2022-11-27T01:11:34;93916.06;;;2.50;66.34
59289;BME280;45056;47.602;9.886;2022-11-27T01:14:07;93908.75;;;2.50;66.64
59289;BME280;45056;47.602;9.886;2022-11-27T01:16:37;93904.19;;;2.51;66.42
59289;BME280;45056;47.602;9.886;2022-11-27T01:19:05;93903.75;;;2.49;66.42
59289;BME280;45056;47.602;9.886;2022-11-27T01:21:34;93897.59;;;2.48;66.28
59289;BME280;45056;47.602;9.886;2022-11-27T01:24:03;93898.38;;;2.49;66.47
59289;BME280;45056;47.602;9.886;2022-11-27T01:26:32;93886.88;;;2.48;66.25
59289;BME280;45056;47.602;9.886;2022-11-27T01:29:00;93878.00;;;2.48;66.12
59289;BME280;45056;47.602;9.886;2022-11-27T01:31:32;93883.38;;;2.48;66.17
59289;BME280;45056;47.602;9.886;2022-11-27T01:34:04;93875.72;;;2.46;66.13
59289;BME280;45056;47.602;9.886;2022-11-27T01:36:34;93876.88;;;2.49;65.86
59289;BME280;45056;47.602;9.886;2022-11-27T01:39:03;93875.31;;;2.48;65.69
59289;BME280;45056;47.602;9.886;2022-11-27T01:41:33;93871.09;;;2.47;65.74
59289;BME280;45056;47.602;9.886;2022-11-27T01:47:28;93865.28;;;2.41;65.33
59289;BME280;45056;47.602;9.886;2022-11-27T01:50:22;93857.56;;;2.36;65.32
59289;BME280;45056;47.602;9.886;2022-11-27T01:53:05;93858.28;;;2.33;65.29
59289;BME280;45056;47.602;9.886;2022-11-27T01:55:44;93855.56;;;2.29;65.43
59289;BME280;45056;47.602;9.886;2022-11-27T01:58:20;93846.69;;;2.25;65.56
59289;BME280;45056;47.602;9.886;2022-11-27T02:00:51;93848.97;;;2.23;65.67
59289;BME280;45056;47.602;9.886;2022-11-27T02:03:20;93851.66;;;2.23;65.82
59289;BME280;45056;47.602;9.886;2022-11-27T02:05:49;93834.00;;;2.22;65.65
59289;BME280;45056;47.602;9.886;2022-11-27T02:08:17;93831.66;;;2.20;65.53
59289;BME280;45056;47.602;9.886;2022-11-27T02:10:49;93825.53;;;2.20;65.85
59289;BME280;45056;47.602;9.886;2022-11-27T02:13:25;93832.47;;;2.21;65.73
59289;BME280;45056;47.602;9.886;2022-11-27T02:17:31;93833.59;;;2.20;65.70
59289;BME280;45056;47.602;9.886;2022-11-27T02:40:33;93797.69;;;2.01;65.26
59289;BME280;45056;47.602;9.886;2022-11-27T02:43:50;93803.06;;;2.01;65.57
59289;BME280;45056;47.602;9.886;2022-11-27T02:47:38;93808.78;;;1.99;65.56
59289;BME280;45056;47.602;9.886;2022-11-27T02:51:04;93807.63;;;1.97;65.01
59289;BME280;45056;47.602;9.886;2022-11-27T02:54:04;93803.38;;;1.96;64.99
59289;BME280;45056;47.602;9.886;2022-11-27T02:56:45;93811.78;;;1.94;64.84
59289;BME280;45056;47.602;9.886;2022-11-27T02:59:42;93804.88;;;1.93;65.06
59289;BME280;45056;47.602;9.886;2022-11-27T03:06:20;93800.63;;;1.89;64.78
59289;BME280;45056;47.602;9.886;2022-11-27T03:12:22;93793.66;;;1.84;65.17
59289;BME280;45056;47.602;9.886;2022-11-27T03:15:25;93785.94;;;1.82;65.13
59289;BME280;45056;47.602;9.886;2022-11-27T03:18:40;93777.91;;;1.82;65.28
59289;BME280;45056;47.602;9.886;2022-11-27T03:21:49;93785.94;;;1.82;65.31
59289;BME280;45056;47.602;9.886;2022-11-27T03:25:00;93778.69;;;1.83;65.22
59289;BME280;45056;47.602;9.886;2022-11-27T03:28:10;93783.69;;;1.84;65.02
59289;BME280;45056;47.602;9.886;2022-11-27T03:31:09;93775.22;;;1.82;65.01
59289;BME280;45056;47.602;9.886;2022-11-27T03:33:52;93778.69;;;1.83;64.91
59289;BME280;45056;47.602;9.886;2022-11-27T03:37:09;93776.00;;;1.83;65.12
59289;BME280;45056;47.602;9.886;2022-11-27T03:40:44;93772.94;;;1.84;65.11
59289;BME280;45056;47.602;9.886;2022-11-27T03:43:58;93780.63;;;1.86;65.11
59289;BME280;45056;47.602;9.886;2022-11-27T03:47:17;93775.63;;;1.84;64.77
59289;BME280;45056;47.602;9.886;2022-11-27T04:02:56;93767.47;;;1.73;64.46
59289;BME280;45056;47.602;9.886;2022-11-27T04:10:19;93766.69;;;1.73;64.24
59289;BME280;45056;47.602;9.886;2022-11-27T04:13:39;93771.22;;;1.69;64.28
59289;BME280;45056;47.602;9.886;2022-11-27T04:17:57;93767.72;;;1.65;64.20
59289;BME280;45056;47.602;9.886;2022-11-27T04:21:31;93760.41;;;1.62;63.98
59289;BME280;45056;47.602;9.886;2022-11-27T04:25:12;93763.44;;;1.60;64.15
59289;BME280;45056;47.602;9.886;2022-11-27T04:28:40;93768.81;;;1.60;64.24
59289;BME280;45056;47.602;9.886;2022-11-27T04:31:41;93771.16;;;1.62;64.64
59289;BME280;45056;47.602;9.886;2022-11-27T04:34:49;93766.19;;;1.64;63.92
59289;BME280;45056;47.602;9.886;2022-11-27T04:37:57;93775.72;;;1.61;63.79
59289;BME280;45056;47.602;9.886;2022-11-27T04:41:25;93775.25;;;1.55;63.92
59289;BME280;45056;47.602;9.886;2022-11-27T04:44:34;93776.78;;;1.53;64.01
59289;BME280;45056;47.602;9.886;2022-11-27T04:47:26;93780.94;;;1.50;64.18
59289;BME280;45056;47.602;9.886;2022-11-27T04:53:46;93773.28;;;1.49;64.56
59289;BME280;45056;47.602;9.886;2022-11-27T04:56:59;93766.31;;;1.44;64.42
59289;BME280;45056;47.602;9.886;2022-11-27T04:59:34;93770.84;;;1.40;64.52
59289;BME280;45056;47.602;9.886;2022-11-27T05:02:52;93762.00;;;1.39;64.75
59289;BME280;45056;47.602;9.886;2022-11-27T05:05:59;93758.19;;;1.40;64.40
59289;BME280;45056;47.602;9.886;2022-11-27T05:09:23;93767.81;;;1.41;64.52
59289;BME280;45056;47.602;9.886;2022-11-27T05:33:55;93747.13;;;1.15;64.84
59289;BME280;45056;47.602;9.886;2022-11-27T05:37:14;93747.53;;;1.17;64.87
59289;BME280;45056;47.602;9.886;2022-11-27T05:40:01;93746.00;;;1.16;64.79
59289;BME280;45056;47.602;9.886;2022-11-27T05:46:45;93743.69;;;1.14;64.16
59289;BME280;45056;47.602;9.886;2022-11-27T05:50:13;93732.91;;;1.11;64.42
59289;BME280;45056;47.602;9.886;2022-11-27T05:53:12;93736.38;;;1.11;64.39
59289;BME280;45056;47.602;9.886;2022-11-27T05:56:02;93735.25;;;1.12;64.76
59289;BME280;45056;47.602;9.886;2022-11-27T06:03:10;93730.22;;;1.11;64.47
59289;BME280;45056;47.602;9.886;2022-11-27T06:05:51;93724.09;;;1.10;64.24
59289;BME280;45056;47.602;9.886;2022-11-27T06:09:38;93724.88;;;1.11;64.06
59289;BME280;45056;47.602;9.886;2022-11-27T06:13:33;93722.97;;;1.11;64.32
59289;BME280;45056;47.602;9.886;2022-11-27T06:16:31;93732.91;;;1.11;64.00
59289;BME280;45056;47.602;9.886;2022-11-27T06:19:43;93728.69;;;1.10;64.18
59289;BME280;45056;47.602;9.886;2022-11-27T06:22:54;93727.91;;;1.09;63.90
59289;BME280;45056;47.602;9.886;2022-11-27T06:26:19;93721.44;;;1.10;64.06
59289;BME280;45056;47.602;9.886;2022-11-27T06:29:43;93717.97;;;1.10;64.04
59289;BME280;45056;47.602;9.886;2022-11-27T06:32:30;93719.09;;;1.09;63.92
59289;BME280;45056;47.602;9.886;2022-11-27T06:35:39;93715.63;;;1.08;63.69
59289;BME280;45056;47.602;9.886;2022-11-27T06:38:47;93718.69;;;1.07;63.73
59289;BME280;45056;47.602;9.886;2022-11-27T06:41:39;93716.00;;;1.07;63.68
59289;BME280;45056;47.602;9.886;2022-11-27T06:44:21;93719.81;;;1.06;63.45
59289;BME280;45056;47.602;9.886;2022-11-27T06:47:14;93714.47;;;1.06;63.51
59289;BME280;45056;47.602;9.886;2022-11-27T06:49:59;93713.66;;;1.05;63.46
59289;BME280;45056;47.602;9.886;2022-11-27T06:53:31;93717.13;;;1.06;63.20
59289;BME280;45056;47.602;9.886;2022-11-27T06:57:12;93715.59;;;1.05;63.32
59289;BME280;45056;47.602;9.886;2022-11-27T07:00:23;93715.94;;;1.03;63.71
59289;BME280;45056;47.602;9.886;2022-11-27T07:03:21;93715.19;;;1.03;63.57
59289;BME280;45056;47.602;9.886;2022-11-27T07:06:26;93711.78;;;1.06;63.57
59289;BME280;45056;47.602;9.886;2022-11-27T07:09:00;93705.28;;;1.07;63.49
59289;BME280;45056;47.602;9.886;2022-11-27T07:11:29;93703.00;;;1.09;63.55
59289;BME280;45056;47.602;9.886;2022-11-27T07:14:03;93701.53;;;1.11;63.35
59289;BME280;45056;47.602;9.886;2022-11-27T07:16:34;93704.63;;;1.13;63.29
59289;BME280;45056;47.602;9.886;2022-11-27T07:19:05;93705.75;;;1.12;63.09
59289;BME280;45056;47.602;9.886;2022-11-27T07:21:35;93707.28;;;1.13;63.01
59289;BME280;45056;47.602;9.886;2022-11-27T07:24:06;93713.41;;;1.14;63.02
59289;BME280;45056;47.602;9.886;2022-11-27T07:26:35;93717.28;;;1.17;62.88
59289;BME280;45056;47.602;9.886;2022-11-27T07:29:03;93710.78;;;1.18;63.00
59289;BME280;45056;47.602;9.886;2022-11-27T07:31:37;93712.34;;;1.19;63.33
59289;BME280;45056;47.602;9.886;2022-11-27T07:34:05;93723.47;;;1.21;63.29
59289;BME280;45056;47.602;9.886;2022-11-27T07:36:37;93723.88;;;1.23;63.37
59289;BME280;45056;47.602;9.886;2022-11-27T07:39:06;93725.09;;;1.29;63.37
59289;BME280;45056;47.602;9.886;2022-11-27T07:41:35;93728.69;;;1.40;63.24
59289;BME280;45056;47.602;9.886;2022-11-27T07:44:03;93730.50;;;1.60;63.42
59289;BME280;45056;47.602;9.886;2022-11-27T07:46:31;93721.19;;;1.84;62.93
59289;BME280;45056;47.602;9.886;2022-11-27T07:48:59;93720.69;;;2.09;62.33
59289;BME280;45056;47.602;9.886;2022-11-27T07:51:28;93732.09;;;2.36;62.08
59289;BME280;45056;47.602;9.886;2022-11-27T07:53:59;93727.72;;;2.62;61.30
59289;BME280;45056;47.602;9.886;2022-11-27T08:03:44;93722.59;;;3.54;59.26
59289;BME280;45056;47.602;9.886;2022-11-27T08:06:34;93717.66;;;3.71;58.70
59289;BME280;45056;47.602;9.886;2022-11-27T08:09:05;93716.94;;;3.81;58.56
59289;BME280;45056;47.602;9.886;2022-11-27T08:11:35;93700.44;;;3.90;58.13
59289;BME280;45056;47.602;9.886;2022-11-27T08:14:07;93694.66;;;3.92;58.17
59289;BME280;45056;47.602;9.886;2022-11-27T08:16:36;93688.88;;;3.86;58.17
59289;BME280;45056;47.602;9.886;2022-11-27T08:19:04;93688.84;;;3.79;58.01
59289;BME280;45056;47.602;9.886;2022-11-27T08:21:32;93688.44;;;3.73;58.50
59289;BME280;45056;47.602;9.886;2022-11-27T08:24:04;93686.09;;;3.68;58.79
59289;BME280;45056;47.602;9.886;2022-11-27T08:26:34;93696.88;;;3.68;58.81
59289;BME280;45056;47.602;9.886;2022-11-27T08:29:11;93696.88;;;3.68;58.34
59289;BME280;45056;47.602;9.886;2022-11-27T08:31:42;93693.81;;;3.69;58.87
59289;BME280;45056;47.602;9.886;2022-11-27T08:34:10;93687.28;;;3.70;58.98
59289;BME280;45056;47.602;9.886;2022-11-27T08:36:40;93682.28;;;3.72;58.81
59289;BME280;45056;47.602;9.886;2022-11-27T08:39:08;93673.81;;;3.70;58.93
59289;BME280;45056;47.602;9.886;2022-11-27T08:41:39;93676.50;;;3.67;58.93
59289;BME280;45056;47.602;9.886;2022-11-27T08:44:10;93673.81;;;3.70;59.13
59289;BME280;45056;47.602;9.886;2022-11-27T08:46:38;93679.63;;;3.76;59.39
59289;BME280;45056;47.602;9.886;2022-11-27T08:49:06;93669.63;;;3.80;59.56
59289;BME280;45056;47.602;9.886;2022-11-27T08:51:34;93671.56;;;3.83;59.69
59289;BME280;45056;47.602;9.886;2022-11-27T08:54:03;93667.72;;;3.92;60.11
59289;BME280;45056;47.602;9.886;2022-11-27T08:56:32;93666.22;;;4.01;60.04
59289;BME280;45056;47.602;9.886;2022-11-27T08:59:02;93662.41;;;4.06;60.02
59289;BME280;45056;47.602;9.886;2022-11-27T09:01:32;93669.34;;;4.14;60.05
59289;BME280;45056;47.602;9.886;2022-11-27T09:04:01;93666.25;;;4.19;59.95
59289;BME280;45056;47.602;9.886;2022-11-27T09:06:31;93662.41;;;4.21;59.59
59289;BME280;45056;47.602;9.886;2022-11-27T09:09:03;93644.72;;;4.23;60.07
59289;BME280;45056;47.602;9.886;2022-11-27T09:11:36;93640.09;;;4.24;59.63
59289;BME280;45056;47.602;9.886;2022-11-27T09:14:06;93641.63;;;4.25;60.00
59289;BME280;45056;47.602;9.886;2022-11-27T09:16:36;93650.88;;;4.27;60.20
59289;BME280;45056;47.602;9.886;2022-11-27T09:19:05;93661.66;;;4.31;60.33
59289;BME280;45056;47.602;9.886;2022-11-27T09:21:34;93649.72;;;4.36;59.41
59289;BME280;45056;47.602;9.886;2022-11-27T09:24:04;93663.19;;;4.43;59.65
59289;BME280;45056;47.602;9.886;2022-11-27T09:26:33;93657.06;;;4.50;59.55
59289;BME280;45056;47.602;9.886;2022-11-27T09:29:01;93670.16;;;4.55;58.63
59289;BME280;45056;47.602;9.886;2022-11-27T09:31:29;93667.84;;;4.60;58.77
59289;BME280;45056;47.602;9.886;2022-11-27T09:34:02;93676.72;;;4.68;58.62
59289;BME280;45056;47.602;9.886;2022-11-27T09:36:31;93661.69;;;4.74;58.32
59289;BME280;45056;47.602;9.886;2022-11-27T09:39:00;93664.75;;;4.80;58.27
59289;BME280;45056;47.602;9.886;2022-11-27T09:41:44;93660.91;;;4.85;58.47
59289;BME280;45056;47.602;9.886;2022-11-27T09:44:25;93653.97;;;4.87;57.95
59289;BME280;45056;47.602;9.886;2022-11-27T09:47:04;93645.09;;;4.90;56.73
59289;BME280;45056;47.602;9.886;2022-11-27T09:49:44;93642.00;;;4.96;56.24
59289;BME280;45056;47.602;9.886;2022-11-27T09:52:23;93628.50;;;5.07;55.94
59289;BME280;45056;47.602;9.886;2022-11-27T09:55:01;93631.56;;;5.16;56.05
59289;BME280;45056;47.602;9.886;2022-11-27T09:57:39;93635.78;;;5.24;56.27
59289;BME280;45056;47.602;9.886;2022-11-27T10:00:13;93629.97;;;5.37;56.05
59289;BME280;45056;47.602;9.886;2022-11-27T10:02:47;93628.00;;;5.48;54.52
59289;BME280;45056;47.602;9.886;2022-11-27T10:05:21;93630.66;;;5.59;56.06
59289;BME280;45056;47.602;9.886;2022-11-27T10:08:15;93636.75;;;5.74;55.59
59289;BME280;45056;47.602;9.886;2022-11-27T10:11:09;93625.13;;;5.84;54.48
59289;BME280;45056;47.602;9.886;2022-11-27T10:14:04;93632.78;;;5.97;54.43
59289;BME280;45056;47.602;9.886;2022-11-27T10:16:50;93631.97;;;6.11;54.39
59289;BME280;45056;47.602;9.886;2022-11-27T10:19:31;93634.56;;;6.25;55.18
59289;BME280;45056;47.602;9.886;2022-11-27T10:22:15;93631.00;;;6.39;55.25
59289;BME280;45056;47.602;9.886;2022-11-27T10:24:58;93628.19;;;6.54;54.84
59289;BME280;45056;47.602;9.886;2022-11-27T10:27:45;93625.81;;;6.63;54.44
59289;BME280;45056;47.602;9.886;2022-11-27T10:30:28;93628.06;;;6.68;54.00
59289;BME280;45056;47.602;9.886;2022-11-27T10:32:59;93643.06;;;6.76;53.63
59289;BME280;45056;47.602;9.886;2022-11-27T10:35:31;93647.63;;;6.87;53.66
59289;BME280;45056;47.602;9.886;2022-11-27T10:38:08;93639.38;;;7.01;53.41
59289;BME280;45056;47.602;9.886;2022-11-27T10:40:46;93637.31;;;7.13;52.49
59289;BME280;45056;47.602;9.886;2022-11-27T10:43:22;93639.53;;;7.25;53.07
59289;BME280;45056;47.602;9.886;2022-11-27T10:45:54;93633.16;;;7.43;52.63
59289;BME280;45056;47.602;9.886;2022-11-27T10:48:25;93629.13;;;7.58;52.23
59289;BME280;45056;47.602;9.886;2022-11-27T10:50:55;93622.44;;;7.67;50.81
59289;BME280;45056;47.602;9.886;2022-11-27T10:53:29;93623.88;;;7.75;51.64
59289;BME280;45056;47.602;9.886;2022-11-27T10:56:27;93611.69;;;7.90;51.55
59289;BME280;45056;47.602;9.886;2022-11-27T10:59:18;93612.22;;;8.09;51.92
59289;BME280;45056;47.602;9.886;2022-11-27T11:01:53;93611.19;;;8.27;50.98
59289;BME280;45056;47.602;9.886;2022-11-27T11:04:38;93605.31;;;8.32;50.18
59289;BME280;45056;47.602;9.886;2022-11-27T11:07:27;93602.66;;;8.28;52.14
59289;BME280;45056;47.602;9.886;2022-11-27T11:10:21;93602.09;;;8.13;52.98
59289;BME280;45056;47.602;9.886;2022-11-27T11:13:16;93589.09;;;8.01;53.80
59289;BME280;45056;47.602;9.886;2022-11-27T11:15:55;93595.34;;;7.98;52.68
59289;BME280;45056;47.602;9.886;2022-11-27T11:18:28;93590.84;;;7.87;52.18
59289;BME280;45056;47.602;9.886;2022-11-27T11:21:00;93592.88;;;7.79;51.80
59289;BME280;45056;47.602;9.886;2022-11-27T11:23:33;93584.03;;;7.75;50.90
59289;BME280;45056;47.602;9.886;2022-11-27T11:26:23;93569.28;;;7.80;51.32
59289;BME280;45056;47.602;9.886;2022-11-27T11:29:04;93575.66;;;7.93;50.01
59289;BME280;45056;47.602;9.886;2022-11-27T11:31:44;93567.31;;;8.08;50.00
59289;BME280;45056;47.602;9.886;2022-11-27T11:34:20;93570.94;;;8.25;48.94
59289;BME280;45056;47.602;9.886;2022-11-27T11:36:55;93561.44;;;8.37;48.19
59289;BME280;45056;47.602;9.886;2022-11-27T11:39:28;93569.81;;;8.50;47.91
59289;BME280;45056;47.602;9.886;2022-11-27T11:42:00;93561.00;;;8.66;47.32
59289;BME280;45056;47.602;9.886;2022-11-27T11:44:37;93556.09;;;8.81;47.73
59289;BME280;45056;47.602;9.886;2022-11-27T11:47:20;93533.03;;;8.93;46.60
59289;BME280;45056;47.602;9.886;2022-11-27T11:49:51;93529.81;;;8.98;45.89
59289;BME280;45056;47.602;9.886;2022-11-27T11:52:40;93527.34;;;9.07;46.49
59289;BME280;45056;47.602;9.886;2022-11-27T11:55:25;93529.84;;;9.18;45.58
59289;BME280;45056;47.602;9.886;2022-11-27T11:58:20;93527.06;;;9.22;45.12
59289;BME280;45056;47.602;9.886;2022-11-27T12:01:30;93532.47;;;9.22;43.98
59289;BME280;45056;47.602;9.886;2022-11-27T12:04:42;93528.09;;;9.28;45.38
59289;BME280;45056;47.602;9.886;2022-11-27T12:07:46;93524.09;;;9.53;46.07
59289;BME280;45056;47.602;9.886;2022-11-27T12:10:42;93519.25;;;9.81;45.49
59289;BME280;45056;47.602;9.886;2022-11-27T12:13:43;93511.63;;;10.09;45.11
59289;BME280;45056;47.602;9.886;2022-11-27T12:16:32;93501.88;;;10.28;44.77
59289;BME280;45056;47.602;9.886;2022-11-27T12:22:40;93498.34;;;10.77;43.73
59289;BME280;45056;47.602;9.886;2022-11-27T12:25:34;93496.91;;;11.02;43.15
59289;BME280;45056;47.602;9.886;2022-11-27T12:28:23;93490.06;;;11.10;42.85
59289;BME280;45056;47.602;9.886;2022-11-27T12:31:10;93484.97;;;11.13;41.26
59289;BME280;45056;47.602;9.886;2022-11-27T12:33:59;93484.25;;;11.25;40.33
59289;BME280;45056;47.602;9.886;2022-11-27T12:36:49;93480.22;;;11.43;40.24
59289;BME280;45056;47.602;9.886;2022-11-27T12:39:45;93464.31;;;11.54;38.95
59289;BME280;45056;47.602;9.886;2022-11-27T12:42:28;93461.72;;;11.63;38.90
59289;BME280;45056;47.602;9.886;2022-11-27T12:45:16;93452.91;;;11.59;39.66
59289;BME280;45056;47.602;9.886;2022-11-27T12:47:55;93444.91;;;11.52;40.88
59289;BME280;45056;47.602;9.886;2022-11-27T12:50:38;93440.78;;;11.47;41.64
59289;BME280;45056;47.602;9.886;2022-11-27T12:53:17;93435.75;;;11.46;42.49
59289;BME280;45056;47.602;9.886;2022-11-27T12:56:05;93425.09;;;11.51;41.27
59289;BME280;45056;47.602;9.886;2022-11-27T12:58:45;93429.25;;;11.56;40.26
59289;BME280;45056;47.602;9.886;2022-11-27T13:01:24;93424.31;;;11.64;40.44
59289;BME280;45056;47.602;9.886;2022-11-27T13:04:04;93417.47;;;11.72;39.77
59289;BME280;45056;47.602;9.886;2022-11-27T13:06:54;93423.44;;;11.80;39.37
59289;BME280;45056;47.602;9.886;2022-11-27T13:09:44;93424.44;;;11.86;38.26
59289;BME280;45056;47.602;9.886;2022-11-27T13:12:32;93409.25;;;11.85;38.81
59289;BME280;45056;47.602;9.886;2022-11-27T13:15:15;93399.03;;;11.89;37.79
59289;BME280;45056;47.602;9.886;2022-11-27T13:17:59;93397.50;;;11.88;37.43
59289;BME280;45056;47.602;9.886;2022-11-27T13:20:37;93393.56;;;11.89;37.18
59289;BME280;45056;47.602;9.886;2022-11-27T13:23:07;93387.34;;;11.89;36.85
59289;BME280;45056;47.602;9.886;2022-11-27T13:25:46;93381.47;;;11.77;35.88
59289;BME280;45056;47.602;9.886;2022-11-27T13:28:24;93384.53;;;11.66;37.02
59289;BME280;45056;47.602;9.886;2022-11-27T13:31:06;93386.94;;;11.64;37.94
59289;BME280;45056;47.602;9.886;2022-11-27T13:33:48;93392.50;;;11.61;38.75
59289;BME280;45056;47.602;9.886;2022-11-27T13:36:26;93394.16;;;11.58;39.32
59289;BME280;45056;47.602;9.886;2022-11-27T13:38:59;93391.53;;;11.54;40.19
59289;BME280;45056;47.602;9.886;2022-11-27T13:41:36;93391.63;;;11.51;39.84
59289;BME280;45056;47.602;9.886;2022-11-27T13:44:22;93387.72;;;11.39;38.84
59289;BME280;45056;47.602;9.886;2022-11-27T13:47:07;93382.69;;;11.24;39.25
59289;BME280;45056;47.602;9.886;2022-11-27T13:49:40;93388.25;;;11.08;39.73
59289;BME280;45056;47.602;9.886;2022-11-27T13:52:14;93391.34;;;10.93;39.93
59289;BME280;45056;47.602;9.886;2022-11-27T13:54:53;93392.31;;;10.87;40.29
59289;BME280;45056;47.602;9.886;2022-11-27T13:57:28;93379.25;;;10.81;40.64
59289;BME280;45056;47.602;9.886;2022-11-27T14:00:02;93375.94;;;10.74;40.75
59289;BME280;45056;47.602;9.886;2022-11-27T14:02:42;93375.06;;;10.64;41.22
59289;BME280;45056;47.602;9.886;2022-11-27T14:05:15;93373.06;;;10.51;42.77
59289;BME280;45056;47.602;9.886;2022-11-27T14:07:53;93366.78;;;10.38;44.24
59289;BME280;45056;47.602;9.886;2022-11-27T14:10:33;93371.41;;;10.24;45.43
59289;BME280;45056;47.602;9.886;2022-11-27T14:13:06;93366.69;;;10.12;45.79
59289;BME280;45056;47.602;9.886;2022-11-27T14:15:37;93368.91;;;10.01;45.65
59289;BME280;45056;47.602;9.886;2022-11-27T14:18:16;93363.81;;;9.86;45.46
59289;BME280;45056;47.602;9.886;2022-11-27T14:20:50;93366.47;;;9.73;45.81
59289;BME280;45056;47.602;9.886;2022-11-27T14:23:29;93363.75;;;9.57;46.50
59289;BME280;45056;47.602;9.886;2022-11-27T14:26:20;93364.66;;;9.33;46.95
59289;BME280;45056;47.602;9.886;2022-11-27T14:29:02;93350.66;;;9.18;47.78
59289;BME280;45056;47.602;9.886;2022-11-27T14:31:57;93347.41;;;9.07;48.86
59289;BME280;45056;47.602;9.886;2022-11-27T14:34:34;93350.69;;;8.98;49.16
59289;BME280;45056;47.602;9.886;2022-11-27T14:37:25;93337.59;;;8.76;49.86
59289;BME280;45056;47.602;9.886;2022-11-27T14:39:56;93334.13;;;8.56;50.61
59289;BME280;45056;47.602;9.886;2022-11-27T14:42:31;93332.94;;;8.36;51.21
59289;BME280;45056;47.602;9.886;2022-11-27T14:45:07;93332.38;;;8.25;51.38
59289;BME280;45056;47.602;9.886;2022-11-27T14:47:51;93328.28;;;8.17;51.36
59289;BME280;45056;47.602;9.886;2022-11-27T14:50:22;93322.16;;;8.13;51.59
59289;BME280;45056;47.602;9.886;2022-11-27T14:52:56;93319.94;;;8.07;51.41
59289;BME280;45056;47.602;9.886;2022-11-27T14:55:26;93318.88;;;8.01;51.30
59289;BME280;45056;47.602;9.886;2022-11-27T14:58:02;93318.19;;;7.97;50.96
59289;BME280;45056;47.602;9.886;2022-11-27T15:00:34;93311.31;;;7.92;50.70
59289;BME280;45056;47.602;9.886;2022-11-27T15:03:15;93311.44;;;7.85;50.45
59289;BME280;45056;47.602;9.886;2022-11-27T15:05:52;93305.31;;;7.81;50.32
59289;BME280;45056;47.602;9.886;2022-11-27T15:08:27;93302.22;;;7.79;49.86
59289;BME280;45056;47.602;9.886;2022-11-27T15:11:04;93298.47;;;7.73;48.56
59289;BME280;45056;47.602;9.886;2022-11-27T15:14:00;93294.72;;;7.67;47.88
59289;BME280;45056;47.602;9.886;2022-11-27T15:16:56;93295.56;;;7.63;47.65
59289;BME280;45056;47.602;9.886;2022-11-27T15:23:31;93283.81;;;7.50;47.52
59289;BME280;45056;47.602;9.886;2022-11-27T15:26:07;93276.13;;;7.45;47.94
59289;BME280;45056;47.602;9.886;2022-11-27T15:28:40;93270.44;;;7.39;48.15
59289;BME280;45056;47.602;9.886;2022-11-27T15:31:30;93261.25;;;7.33;48.54
59289;BME280;45056;47.602;9.886;2022-11-27T15:34:04;93253.59;;;7.28;49.16
59289;BME280;45056;47.602;9.886;2022-11-27T15:36:56;93250.19;;;7.24;49.78
59289;BME280;45056;47.602;9.886;2022-11-27T15:39:35;93242.50;;;7.22;49.83
59289;BME280;45056;47.602;9.886;2022-11-27T15:42:11;93232.84;;;7.21;49.95
59289;BME280;45056;47.602;9.886;2022-11-27T15:44:40;93225.91;;;7.20;50.22
59289;BME280;45056;47.602;9.886;2022-11-27T15:47:21;93220.50;;;7.20;50.36
59289;BME280;45056;47.602;9.886;2022-11-27T15:49:51;93219.72;;;7.19;50.72
59289;BME280;45056;47.602;9.886;2022-11-27T15:52:19;93214.34;;;7.16;51.14
59289;BME280;45056;47.602;9.886;2022-11-27T15:54:50;93220.59;;;7.13;51.73
59289;BME280;45056;47.602;9.886;2022-11-27T15:57:21;93222.25;;;7.06;52.17
59289;BME280;45056;47.602;9.886;2022-11-27T15:59:51;93219.63;;;7.03;52.79
59289;BME280;45056;47.602;9.886;2022-11-27T16:02:19;93217.34;;;6.98;53.44
59289;BME280;45056;47.602;9.886;2022-11-27T16:04:48;93205.44;;;6.95;53.48
59289;BME280;45056;47.602;9.886;2022-11-27T16:07:16;93205.47;;;6.91;53.34
59289;BME280;45056;47.602;9.886;2022-11-27T16:09:45;93203.25;;;6.86;53.46
59289;BME280;45056;47.602;9.886;2022-11-27T16:12:15;93207.94;;;6.82;53.42